sensor_id;sensor_type;location;lat;lon;timestamp;P1;durP1;ratioP1;P2;durP2;ratioP2
70467;SDS011;57934;51.532;7.684;2022-09-29T00:00:28;8.15;;;6.93;;
70467;SDS011;57934;51.532;7.684;2022-09-29T00:02:54;8.73;;;7.35;;
70467;SDS011;57934;51.532;7.684;2022-09-29T00:05:20;8.55;;;7.68;;
70467;SDS011;57934;51.532;7.684;2022-09-29T00:07:46;8.82;;;7.60;;
70467;SDS011;57934;51.532;7.684;2022-09-29T00:10:12;8.77;;;7.85;;
70467;SDS011;57934;51.532;7.684;2022-09-29T00:12:38;8.82;;;7.93;;
70467;SDS011;57934;51.532;7.684;2022-09-29T00:15:05;10.32;;;8.68;;
70467;SDS011;57934;51.532;7.684;2022-09-29T00:17:31;10.07;;;7.68;;
70467;SDS011;57934;51.532;7.684;2022-09-29T00:19:58;9.98;;;8.60;;
70467;SDS011;57934;51.532;7.684;2022-09-29T00:22:24;11.50;;;8.88;;
70467;SDS011;57934;51.532;7.684;2022-09-29T00:24:49;11.20;;;8.20;;
70467;SDS011;57934;51.532;7.684;2022-09-29T00:27:16;9.50;;;8.50;;
70467;SDS011;57934;51.532;7.684;2022-09-29T00:29:43;10.45;;;8.75;;
70467;SDS011;57934;51.532;7.684;2022-09-29T00:32:09;12.70;;;8.25;;
70467;SDS011;57934;51.532;7.684;2022-09-29T00:34:35;10.68;;;9.10;;
70467;SDS011;57934;51.532;7.684;2022-09-29T00:37:01;11.35;;;8.40;;
70467;SDS011;57934;51.532;7.684;2022-09-29T00:39:28;11.15;;;8.77;;
70467;SDS011;57934;51.532;7.684;2022-09-29T00:41:54;12.68;;;9.75;;
70467;SDS011;57934;51.532;7.684;2022-09-29T00:46:48;11.02;;;8.93;;
70467;SDS011;57934;51.532;7.684;2022-09-29T00:52:11;11.25;;;8.95;;
70467;SDS011;57934;51.532;7.684;2022-09-29T00:54:55;12.23;;;9.10;;
70467;SDS011;57934;51.532;7.684;2022-09-29T00:57:28;11.82;;;9.20;;
70467;SDS011;57934;51.532;7.684;2022-09-29T01:00:06;14.45;;;9.20;;
70467;SDS011;57934;51.532;7.684;2022-09-29T01:02:35;13.57;;;10.35;;
70467;SDS011;57934;51.532;7.684;2022-09-29T01:05:05;11.93;;;9.25;;
70467;SDS011;57934;51.532;7.684;2022-09-29T01:07:37;13.43;;;10.05;;
70467;SDS011;57934;51.532;7.684;2022-09-29T01:10:04;15.25;;;10.00;;
70467;SDS011;57934;51.532;7.684;2022-09-29T01:12:31;12.70;;;9.73;;
70467;SDS011;57934;51.532;7.684;2022-09-29T01:14:57;11.77;;;9.20;;
70467;SDS011;57934;51.532;7.684;2022-09-29T01:17:24;11.77;;;10.25;;
70467;SDS011;57934;51.532;7.684;2022-09-29T01:19:54;14.50;;;10.02;;
70467;SDS011;57934;51.532;7.684;2022-09-29T01:25:29;13.60;;;10.63;;
70467;SDS011;57934;51.532;7.684;2022-09-29T01:33:56;15.23;;;10.95;;
70467;SDS011;57934;51.532;7.684;2022-09-29T01:36:54;15.05;;;10.85;;
70467;SDS011;57934;51.532;7.684;2022-09-29T01:39:25;12.98;;;10.25;;
70467;SDS011;57934;51.532;7.684;2022-09-29T01:42:11;14.35;;;10.95;;
70467;SDS011;57934;51.532;7.684;2022-09-29T01:47:36;14.73;;;11.10;;
70467;SDS011;57934;51.532;7.684;2022-09-29T01:50:17;16.40;;;11.52;;
70467;SDS011;57934;51.532;7.684;2022-09-29T01:52:53;13.27;;;10.18;;
70467;SDS011;57934;51.532;7.684;2022-09-29T01:55:25;14.20;;;10.93;;
70467;SDS011;57934;51.532;7.684;2022-09-29T01:58:01;16.10;;;10.70;;
70467;SDS011;57934;51.532;7.684;2022-09-29T02:00:34;14.82;;;11.15;;
70467;SDS011;57934;51.532;7.684;2022-09-29T02:06:03;14.70;;;11.00;;
70467;SDS011;57934;51.532;7.684;2022-09-29T02:08:39;16.27;;;11.10;;
70467;SDS011;57934;51.532;7.684;2022-09-29T02:11:11;18.55;;;12.10;;
70467;SDS011;57934;51.532;7.684;2022-09-29T02:16:17;14.65;;;10.75;;
70467;SDS011;57934;51.532;7.684;2022-09-29T02:18:57;15.40;;;10.63;;
70467;SDS011;57934;51.532;7.684;2022-09-29T02:21:27;15.32;;;12.05;;
70467;SDS011;57934;51.532;7.684;2022-09-29T02:23:53;17.48;;;12.27;;
70467;SDS011;57934;51.532;7.684;2022-09-29T02:26:20;17.77;;;12.82;;
70467;SDS011;57934;51.532;7.684;2022-09-29T02:28:48;14.77;;;12.20;;
70467;SDS011;57934;51.532;7.684;2022-09-29T02:31:14;16.02;;;12.45;;
70467;SDS011;57934;51.532;7.684;2022-09-29T02:33:41;16.73;;;13.15;;
70467;SDS011;57934;51.532;7.684;2022-09-29T02:39:12;14.65;;;12.27;;
70467;SDS011;57934;51.532;7.684;2022-09-29T02:45:06;18.98;;;13.23;;
70467;SDS011;57934;51.532;7.684;2022-09-29T02:56:03;18.10;;;13.82;;
70467;SDS011;57934;51.532;7.684;2022-09-29T03:01:15;16.65;;;12.90;;
70467;SDS011;57934;51.532;7.684;2022-09-29T03:03:41;19.85;;;13.40;;
70467;SDS011;57934;51.532;7.684;2022-09-29T03:06:08;17.58;;;13.57;;
70467;SDS011;57934;51.532;7.684;2022-09-29T03:08:35;19.02;;;14.45;;
70467;SDS011;57934;51.532;7.684;2022-09-29T03:11:02;17.05;;;12.75;;
70467;SDS011;57934;51.532;7.684;2022-09-29T03:13:28;17.48;;;13.00;;
70467;SDS011;57934;51.532;7.684;2022-09-29T03:15:53;17.90;;;12.52;;
70467;SDS011;57934;51.532;7.684;2022-09-29T03:18:19;19.30;;;13.23;;
70467;SDS011;57934;51.532;7.684;2022-09-29T03:20:48;21.13;;;13.77;;
70467;SDS011;57934;51.532;7.684;2022-09-29T03:23:14;19.50;;;13.15;;
70467;SDS011;57934;51.532;7.684;2022-09-29T03:25:40;18.25;;;13.68;;
70467;SDS011;57934;51.532;7.684;2022-09-29T03:28:06;20.88;;;14.23;;
70467;SDS011;57934;51.532;7.684;2022-09-29T03:30:32;19.80;;;14.05;;
70467;SDS011;57934;51.532;7.684;2022-09-29T03:32:58;20.10;;;14.93;;
70467;SDS011;57934;51.532;7.684;2022-09-29T03:35:24;19.45;;;13.38;;
70467;SDS011;57934;51.532;7.684;2022-09-29T03:37:50;19.38;;;14.38;;
70467;SDS011;57934;51.532;7.684;2022-09-29T03:40:16;19.67;;;13.88;;
70467;SDS011;57934;51.532;7.684;2022-09-29T03:42:44;19.10;;;14.90;;
70467;SDS011;57934;51.532;7.684;2022-09-29T03:45:11;19.35;;;14.05;;
70467;SDS011;57934;51.532;7.684;2022-09-29T03:47:37;19.85;;;14.18;;
70467;SDS011;57934;51.532;7.684;2022-09-29T03:50:03;22.35;;;14.82;;
70467;SDS011;57934;51.532;7.684;2022-09-29T03:52:30;19.45;;;14.00;;
70467;SDS011;57934;51.532;7.684;2022-09-29T03:54:56;18.63;;;14.15;;
70467;SDS011;57934;51.532;7.684;2022-09-29T03:57:21;21.02;;;13.60;;
70467;SDS011;57934;51.532;7.684;2022-09-29T03:59:47;19.73;;;14.35;;
70467;SDS011;57934;51.532;7.684;2022-09-29T04:02:14;20.25;;;14.35;;
70467;SDS011;57934;51.532;7.684;2022-09-29T04:04:43;19.17;;;13.13;;
70467;SDS011;57934;51.532;7.684;2022-09-29T04:07:09;20.27;;;13.90;;
70467;SDS011;57934;51.532;7.684;2022-09-29T04:09:35;22.50;;;14.57;;
70467;SDS011;57934;51.532;7.684;2022-09-29T04:12:01;20.25;;;14.45;;
70467;SDS011;57934;51.532;7.684;2022-09-29T04:14:27;19.90;;;13.98;;
70467;SDS011;57934;51.532;7.684;2022-09-29T04:16:53;16.92;;;13.77;;
70467;SDS011;57934;51.532;7.684;2022-09-29T04:19:19;20.40;;;14.90;;
70467;SDS011;57934;51.532;7.684;2022-09-29T04:21:45;18.02;;;14.07;;
70467;SDS011;57934;51.532;7.684;2022-09-29T04:24:11;23.38;;;14.00;;
70467;SDS011;57934;51.532;7.684;2022-09-29T04:26:37;21.67;;;14.15;;
70467;SDS011;57934;51.532;7.684;2022-09-29T04:29:04;20.30;;;14.60;;
70467;SDS011;57934;51.532;7.684;2022-09-29T04:31:31;19.42;;;14.35;;
70467;SDS011;57934;51.532;7.684;2022-09-29T04:33:57;19.40;;;14.05;;
70467;SDS011;57934;51.532;7.684;2022-09-29T04:36:23;22.77;;;14.38;;
70467;SDS011;57934;51.532;7.684;2022-09-29T04:38:49;20.15;;;13.40;;
70467;SDS011;57934;51.532;7.684;2022-09-29T04:41:16;19.67;;;14.05;;
70467;SDS011;57934;51.532;7.684;2022-09-29T04:43:42;20.38;;;14.05;;
70467;SDS011;57934;51.532;7.684;2022-09-29T04:46:08;19.95;;;13.98;;
70467;SDS011;57934;51.532;7.684;2022-09-29T04:48:35;20.35;;;14.10;;
70467;SDS011;57934;51.532;7.684;2022-09-29T04:51:02;20.33;;;14.80;;
70467;SDS011;57934;51.532;7.684;2022-09-29T04:53:30;21.92;;;14.30;;
70467;SDS011;57934;51.532;7.684;2022-09-29T04:55:56;22.92;;;14.90;;
70467;SDS011;57934;51.532;7.684;2022-09-29T04:58:22;20.02;;;14.10;;
70467;SDS011;57934;51.532;7.684;2022-09-29T05:00:47;20.17;;;13.63;;
70467;SDS011;57934;51.532;7.684;2022-09-29T05:03:13;19.90;;;14.25;;
70467;SDS011;57934;51.532;7.684;2022-09-29T05:05:39;19.90;;;13.88;;
70467;SDS011;57934;51.532;7.684;2022-09-29T05:08:06;21.40;;;14.45;;
70467;SDS011;57934;51.532;7.684;2022-09-29T05:10:32;18.38;;;14.40;;
70467;SDS011;57934;51.532;7.684;2022-09-29T05:12:57;23.92;;;14.25;;
70467;SDS011;57934;51.532;7.684;2022-09-29T05:15:23;18.67;;;13.90;;
70467;SDS011;57934;51.532;7.684;2022-09-29T05:17:49;22.45;;;15.00;;
70467;SDS011;57934;51.532;7.684;2022-09-29T05:20:15;19.55;;;13.75;;
70467;SDS011;57934;51.532;7.684;2022-09-29T05:22:41;20.38;;;14.52;;
70467;SDS011;57934;51.532;7.684;2022-09-29T05:25:08;23.60;;;14.80;;
70467;SDS011;57934;51.532;7.684;2022-09-29T05:27:37;21.58;;;14.32;;
70467;SDS011;57934;51.532;7.684;2022-09-29T05:30:03;24.48;;;16.15;;
70467;SDS011;57934;51.532;7.684;2022-09-29T05:32:29;22.90;;;14.55;;
70467;SDS011;57934;51.532;7.684;2022-09-29T05:34:55;21.30;;;15.20;;
70467;SDS011;57934;51.532;7.684;2022-09-29T05:37:22;23.90;;;16.23;;
70467;SDS011;57934;51.532;7.684;2022-09-29T05:39:48;21.65;;;15.20;;
70467;SDS011;57934;51.532;7.684;2022-09-29T05:42:14;25.45;;;15.45;;
70467;SDS011;57934;51.532;7.684;2022-09-29T05:44:40;24.48;;;16.67;;
70467;SDS011;57934;51.532;7.684;2022-09-29T05:47:06;26.02;;;17.25;;
70467;SDS011;57934;51.532;7.684;2022-09-29T05:49:32;27.40;;;18.42;;
70467;SDS011;57934;51.532;7.684;2022-09-29T05:51:58;26.60;;;17.50;;
70467;SDS011;57934;51.532;7.684;2022-09-29T05:54:24;25.27;;;16.63;;
70467;SDS011;57934;51.532;7.684;2022-09-29T05:56:52;26.77;;;17.77;;
70467;SDS011;57934;51.532;7.684;2022-09-29T05:59:18;28.40;;;17.90;;
70467;SDS011;57934;51.532;7.684;2022-09-29T06:01:44;26.42;;;17.80;;
70467;SDS011;57934;51.532;7.684;2022-09-29T06:04:10;27.35;;;17.42;;
70467;SDS011;57934;51.532;7.684;2022-09-29T06:06:36;26.33;;;17.95;;
70467;SDS011;57934;51.532;7.684;2022-09-29T06:09:04;25.67;;;17.02;;
70467;SDS011;57934;51.532;7.684;2022-09-29T06:11:31;32.35;;;17.58;;
70467;SDS011;57934;51.532;7.684;2022-09-29T06:13:58;24.35;;;16.08;;
70467;SDS011;57934;51.532;7.684;2022-09-29T06:16:25;25.05;;;16.77;;
70467;SDS011;57934;51.532;7.684;2022-09-29T06:18:52;23.75;;;17.10;;
70467;SDS011;57934;51.532;7.684;2022-09-29T06:21:22;21.63;;;15.60;;
70467;SDS011;57934;51.532;7.684;2022-09-29T06:23:50;23.13;;;16.35;;
70467;SDS011;57934;51.532;7.684;2022-09-29T06:26:17;27.48;;;17.23;;
70467;SDS011;57934;51.532;7.684;2022-09-29T06:28:45;20.02;;;15.35;;
70467;SDS011;57934;51.532;7.684;2022-09-29T06:31:13;21.20;;;16.00;;
70467;SDS011;57934;51.532;7.684;2022-09-29T06:33:44;21.38;;;15.52;;
70467;SDS011;57934;51.532;7.684;2022-09-29T06:39:11;20.38;;;13.52;;
70467;SDS011;57934;51.532;7.684;2022-09-29T06:41:38;19.90;;;13.50;;
70467;SDS011;57934;51.532;7.684;2022-09-29T06:44:07;18.77;;;13.85;;
70467;SDS011;57934;51.532;7.684;2022-09-29T06:46:33;21.13;;;13.23;;
70467;SDS011;57934;51.532;7.684;2022-09-29T06:49:00;20.55;;;13.70;;
70467;SDS011;57934;51.532;7.684;2022-09-29T06:51:26;20.13;;;13.60;;
70467;SDS011;57934;51.532;7.684;2022-09-29T06:53:52;18.85;;;13.20;;
70467;SDS011;57934;51.532;7.684;2022-09-29T06:56:18;19.30;;;13.60;;
70467;SDS011;57934;51.532;7.684;2022-09-29T06:58:44;17.88;;;12.50;;
70467;SDS011;57934;51.532;7.684;2022-09-29T07:01:11;20.30;;;12.90;;
70467;SDS011;57934;51.532;7.684;2022-09-29T07:03:37;19.40;;;13.20;;
70467;SDS011;57934;51.532;7.684;2022-09-29T07:06:04;20.60;;;13.35;;
70467;SDS011;57934;51.532;7.684;2022-09-29T07:08:31;20.17;;;13.85;;
70467;SDS011;57934;51.532;7.684;2022-09-29T07:10:59;17.35;;;11.43;;
70467;SDS011;57934;51.532;7.684;2022-09-29T07:13:28;11.98;;;10.23;;
70467;SDS011;57934;51.532;7.684;2022-09-29T07:15:54;13.05;;;9.65;;
70467;SDS011;57934;51.532;7.684;2022-09-29T07:18:20;16.30;;;11.02;;
70467;SDS011;57934;51.532;7.684;2022-09-29T07:20:46;11.38;;;9.82;;
70467;SDS011;57934;51.532;7.684;2022-09-29T07:23:12;12.98;;;9.70;;
70467;SDS011;57934;51.532;7.684;2022-09-29T07:25:38;12.02;;;10.05;;
70467;SDS011;57934;51.532;7.684;2022-09-29T07:28:04;12.70;;;9.57;;
70467;SDS011;57934;51.532;7.684;2022-09-29T07:30:30;13.70;;;9.93;;
70467;SDS011;57934;51.532;7.684;2022-09-29T07:32:56;13.60;;;10.82;;
70467;SDS011;57934;51.532;7.684;2022-09-29T07:35:22;12.55;;;9.88;;
70467;SDS011;57934;51.532;7.684;2022-09-29T07:37:55;13.18;;;9.60;;
70467;SDS011;57934;51.532;7.684;2022-09-29T07:40:21;15.00;;;10.70;;
70467;SDS011;57934;51.532;7.684;2022-09-29T07:42:48;15.15;;;11.32;;
70467;SDS011;57934;51.532;7.684;2022-09-29T07:45:16;14.57;;;10.55;;
70467;SDS011;57934;51.532;7.684;2022-09-29T07:47:42;16.58;;;9.98;;
70467;SDS011;57934;51.532;7.684;2022-09-29T07:50:08;12.25;;;9.93;;
70467;SDS011;57934;51.532;7.684;2022-09-29T07:52:35;15.52;;;9.23;;
70467;SDS011;57934;51.532;7.684;2022-09-29T07:55:01;18.08;;;9.30;;
70467;SDS011;57934;51.532;7.684;2022-09-29T07:57:28;11.65;;;8.85;;
70467;SDS011;57934;51.532;7.684;2022-09-29T07:59:54;11.65;;;8.05;;
70467;SDS011;57934;51.532;7.684;2022-09-29T08:02:24;9.70;;;7.63;;
70467;SDS011;57934;51.532;7.684;2022-09-29T08:04:50;10.43;;;7.78;;
70467;SDS011;57934;51.532;7.684;2022-09-29T08:07:16;8.25;;;7.05;;
70467;SDS011;57934;51.532;7.684;2022-09-29T08:09:42;10.60;;;7.30;;
70467;SDS011;57934;51.532;7.684;2022-09-29T08:12:08;9.45;;;6.32;;
70467;SDS011;57934;51.532;7.684;2022-09-29T08:14:34;15.73;;;6.43;;
70467;SDS011;57934;51.532;7.684;2022-09-29T08:17:00;12.68;;;6.80;;
70467;SDS011;57934;51.532;7.684;2022-09-29T08:19:26;9.80;;;6.03;;
70467;SDS011;57934;51.532;7.684;2022-09-29T08:21:53;7.47;;;5.50;;
70467;SDS011;57934;51.532;7.684;2022-09-29T08:24:19;9.40;;;6.35;;
70467;SDS011;57934;51.532;7.684;2022-09-29T08:26:45;6.90;;;6.20;;
70467;SDS011;57934;51.532;7.684;2022-09-29T08:29:11;6.75;;;6.07;;
70467;SDS011;57934;51.532;7.684;2022-09-29T08:31:38;7.95;;;5.82;;
70467;SDS011;57934;51.532;7.684;2022-09-29T08:34:04;7.80;;;5.65;;
70467;SDS011;57934;51.532;7.684;2022-09-29T08:36:30;8.43;;;5.68;;
70467;SDS011;57934;51.532;7.684;2022-09-29T08:38:56;11.02;;;6.40;;
70467;SDS011;57934;51.532;7.684;2022-09-29T08:44:28;8.98;;;5.18;;
70467;SDS011;57934;51.532;7.684;2022-09-29T08:49:59;7.63;;;5.97;;
70467;SDS011;57934;51.532;7.684;2022-09-29T08:52:29;8.88;;;5.30;;
70467;SDS011;57934;51.532;7.684;2022-09-29T08:55:00;6.80;;;5.22;;
70467;SDS011;57934;51.532;7.684;2022-09-29T08:57:35;7.00;;;5.07;;
70467;SDS011;57934;51.532;7.684;2022-09-29T09:00:01;6.13;;;5.57;;
70467;SDS011;57934;51.532;7.684;2022-09-29T09:08:29;8.10;;;5.45;;
70467;SDS011;57934;51.532;7.684;2022-09-29T09:11:33;6.95;;;5.32;;
70467;SDS011;57934;51.532;7.684;2022-09-29T09:14:16;5.95;;;5.25;;
70467;SDS011;57934;51.532;7.684;2022-09-29T09:16:57;5.30;;;4.80;;
70467;SDS011;57934;51.532;7.684;2022-09-29T09:22:20;6.18;;;4.70;;
70467;SDS011;57934;51.532;7.684;2022-09-29T09:24:58;8.63;;;4.30;;
70467;SDS011;57934;51.532;7.684;2022-09-29T09:27:33;4.13;;;3.60;;
70467;SDS011;57934;51.532;7.684;2022-09-29T09:30:03;5.25;;;4.15;;
70467;SDS011;57934;51.532;7.684;2022-09-29T09:32:32;4.68;;;4.07;;
70467;SDS011;57934;51.532;7.684;2022-09-29T09:35:07;6.55;;;3.85;;
70467;SDS011;57934;51.532;7.684;2022-09-29T09:37:46;7.63;;;4.47;;
70467;SDS011;57934;51.532;7.684;2022-09-29T09:40:20;5.22;;;4.45;;
70467;SDS011;57934;51.532;7.684;2022-09-29T09:42:51;5.40;;;3.90;;
70467;SDS011;57934;51.532;7.684;2022-09-29T09:45:28;5.68;;;4.13;;
70467;SDS011;57934;51.532;7.684;2022-09-29T09:48:01;4.93;;;3.90;;
70467;SDS011;57934;51.532;7.684;2022-09-29T09:50:35;4.25;;;3.88;;
70467;SDS011;57934;51.532;7.684;2022-09-29T09:53:05;6.60;;;4.43;;
70467;SDS011;57934;51.532;7.684;2022-09-29T09:55:40;6.95;;;4.15;;
70467;SDS011;57934;51.532;7.684;2022-09-29T10:01:11;4.90;;;4.30;;
70467;SDS011;57934;51.532;7.684;2022-09-29T10:03:37;3.67;;;3.17;;
70467;SDS011;57934;51.532;7.684;2022-09-29T10:06:05;6.40;;;3.97;;
70467;SDS011;57934;51.532;7.684;2022-09-29T10:08:32;6.47;;;3.40;;
70467;SDS011;57934;51.532;7.684;2022-09-29T10:11:03;6.18;;;3.70;;
70467;SDS011;57934;51.532;7.684;2022-09-29T10:13:40;4.85;;;3.75;;
70467;SDS011;57934;51.532;7.684;2022-09-29T10:16:17;5.78;;;3.35;;
70467;SDS011;57934;51.532;7.684;2022-09-29T10:18:49;4.85;;;3.65;;
70467;SDS011;57934;51.532;7.684;2022-09-29T10:21:22;5.45;;;3.40;;
70467;SDS011;57934;51.532;7.684;2022-09-29T10:24:00;6.03;;;3.17;;
70467;SDS011;57934;51.532;7.684;2022-09-29T10:26:28;8.27;;;3.60;;
70467;SDS011;57934;51.532;7.684;2022-09-29T10:29:14;3.60;;;3.13;;
70467;SDS011;57934;51.532;7.684;2022-09-29T10:34:33;6.15;;;3.75;;
70467;SDS011;57934;51.532;7.684;2022-09-29T10:37:03;4.75;;;3.58;;
70467;SDS011;57934;51.532;7.684;2022-09-29T10:39:42;5.43;;;3.70;;
70467;SDS011;57934;51.532;7.684;2022-09-29T10:44:42;6.35;;;4.10;;
70467;SDS011;57934;51.532;7.684;2022-09-29T10:47:14;10.40;;;4.30;;
70467;SDS011;57934;51.532;7.684;2022-09-29T10:49:40;6.80;;;4.55;;
70467;SDS011;57934;51.532;7.684;2022-09-29T10:52:08;5.63;;;3.90;;
70467;SDS011;57934;51.532;7.684;2022-09-29T10:57:19;5.47;;;3.08;;
70467;SDS011;57934;51.532;7.684;2022-09-29T10:59:49;3.42;;;3.10;;
70467;SDS011;57934;51.532;7.684;2022-09-29T11:02:34;3.33;;;2.67;;
70467;SDS011;57934;51.532;7.684;2022-09-29T11:05:04;2.78;;;2.40;;
70467;SDS011;57934;51.532;7.684;2022-09-29T11:07:42;6.65;;;2.38;;
70467;SDS011;57934;51.532;7.684;2022-09-29T11:10:25;4.70;;;2.45;;
70467;SDS011;57934;51.532;7.684;2022-09-29T11:12:53;3.22;;;2.42;;
70467;SDS011;57934;51.532;7.684;2022-09-29T11:15:24;4.28;;;2.75;;
70467;SDS011;57934;51.532;7.684;2022-09-29T11:17:54;2.92;;;2.30;;
70467;SDS011;57934;51.532;7.684;2022-09-29T11:20:22;4.60;;;2.58;;
70467;SDS011;57934;51.532;7.684;2022-09-29T11:36:47;4.20;;;2.10;;
70467;SDS011;57934;51.532;7.684;2022-09-29T11:45:28;4.07;;;1.73;;
70467;SDS011;57934;51.532;7.684;2022-09-29T11:51:13;2.40;;;1.63;;
70467;SDS011;57934;51.532;7.684;2022-09-29T11:54:12;2.58;;;1.33;;
70467;SDS011;57934;51.532;7.684;2022-09-29T11:57:03;2.83;;;1.48;;
70467;SDS011;57934;51.532;7.684;2022-09-29T12:17:56;4.78;;;1.60;;
70467;SDS011;57934;51.532;7.684;2022-09-29T12:20:36;3.53;;;1.50;;
70467;SDS011;57934;51.532;7.684;2022-09-29T12:23:09;3.88;;;1.65;;
70467;SDS011;57934;51.532;7.684;2022-09-29T12:25:40;1.65;;;1.40;;
70467;SDS011;57934;51.532;7.684;2022-09-29T12:28:17;9.70;;;2.10;;
70467;SDS011;57934;51.532;7.684;2022-09-29T12:30:47;4.32;;;1.48;;
70467;SDS011;57934;51.532;7.684;2022-09-29T12:33:24;4.10;;;1.67;;
70467;SDS011;57934;51.532;7.684;2022-09-29T12:39:00;2.38;;;1.92;;
70467;SDS011;57934;51.532;7.684;2022-09-29T12:41:36;3.35;;;1.80;;
70467;SDS011;57934;51.532;7.684;2022-09-29T12:46:57;4.20;;;1.90;;
70467;SDS011;57934;51.532;7.684;2022-09-29T12:49:40;6.90;;;2.53;;
70467;SDS011;57934;51.532;7.684;2022-09-29T12:52:16;3.83;;;2.10;;
70467;SDS011;57934;51.532;7.684;2022-09-29T12:57:35;5.68;;;2.17;;
70467;SDS011;57934;51.532;7.684;2022-09-29T13:13:38;2.90;;;1.75;;
70467;SDS011;57934;51.532;7.684;2022-09-29T13:16:30;2.78;;;2.00;;
70467;SDS011;57934;51.532;7.684;2022-09-29T13:19:30;3.20;;;1.98;;
70467;SDS011;57934;51.532;7.684;2022-09-29T13:25:23;2.72;;;1.80;;
70467;SDS011;57934;51.532;7.684;2022-09-29T13:28:30;3.90;;;1.50;;
70467;SDS011;57934;51.532;7.684;2022-09-29T13:30:59;6.80;;;1.80;;
70467;SDS011;57934;51.532;7.684;2022-09-29T13:33:30;3.58;;;1.70;;
70467;SDS011;57934;51.532;7.684;2022-09-29T13:35:56;5.40;;;1.77;;
70467;SDS011;57934;51.532;7.684;2022-09-29T13:38:23;3.63;;;1.60;;
70467;SDS011;57934;51.532;7.684;2022-09-29T13:46:24;2.05;;;1.50;;
70467;SDS011;57934;51.532;7.684;2022-09-29T13:48:53;5.90;;;1.80;;
70467;SDS011;57934;51.532;7.684;2022-09-29T13:51:27;3.75;;;1.55;;
70467;SDS011;57934;51.532;7.684;2022-09-29T13:54:13;3.70;;;1.52;;
70467;SDS011;57934;51.532;7.684;2022-09-29T13:59:29;2.95;;;1.85;;
70467;SDS011;57934;51.532;7.684;2022-09-29T14:01:56;2.58;;;1.48;;
70467;SDS011;57934;51.532;7.684;2022-09-29T14:10:22;3.67;;;1.92;;
70467;SDS011;57934;51.532;7.684;2022-09-29T14:12:55;2.70;;;1.85;;
70467;SDS011;57934;51.532;7.684;2022-09-29T14:15:30;2.28;;;1.80;;
70467;SDS011;57934;51.532;7.684;2022-09-29T14:18:01;2.40;;;1.67;;
70467;SDS011;57934;51.532;7.684;2022-09-29T14:20:32;2.70;;;1.60;;
70467;SDS011;57934;51.532;7.684;2022-09-29T14:25:31;4.72;;;2.00;;
70467;SDS011;57934;51.532;7.684;2022-09-29T14:28:16;2.88;;;1.40;;
70467;SDS011;57934;51.532;7.684;2022-09-29T14:30:50;2.25;;;1.55;;
70467;SDS011;57934;51.532;7.684;2022-09-29T14:33:24;1.55;;;1.40;;
70467;SDS011;57934;51.532;7.684;2022-09-29T14:38:36;5.43;;;1.80;;
70467;SDS011;57934;51.532;7.684;2022-09-29T14:43:39;2.03;;;1.45;;
70467;SDS011;57934;51.532;7.684;2022-09-29T14:46:39;6.13;;;1.60;;
70467;SDS011;57934;51.532;7.684;2022-09-29T14:53:12;4.65;;;2.35;;
70467;SDS011;57934;51.532;7.684;2022-09-29T15:01:25;7.40;;;2.25;;
70467;SDS011;57934;51.532;7.684;2022-09-29T15:03:53;3.50;;;1.67;;
70467;SDS011;57934;51.532;7.684;2022-09-29T15:06:23;3.15;;;2.00;;
70467;SDS011;57934;51.532;7.684;2022-09-29T15:08:55;2.05;;;1.65;;
70467;SDS011;57934;51.532;7.684;2022-09-29T15:14:01;5.22;;;1.73;;
70467;SDS011;57934;51.532;7.684;2022-09-29T15:19:26;3.85;;;1.77;;
70467;SDS011;57934;51.532;7.684;2022-09-29T15:22:40;2.13;;;1.63;;
70467;SDS011;57934;51.532;7.684;2022-09-29T15:25:23;5.43;;;1.90;;
70467;SDS011;57934;51.532;7.684;2022-09-29T15:27:58;2.65;;;1.77;;
70467;SDS011;57934;51.532;7.684;2022-09-29T15:30:27;4.13;;;1.95;;
70467;SDS011;57934;51.532;7.684;2022-09-29T15:33:08;3.63;;;1.83;;
70467;SDS011;57934;51.532;7.684;2022-09-29T15:35:43;2.70;;;2.10;;
70467;SDS011;57934;51.532;7.684;2022-09-29T15:38:14;4.88;;;1.60;;
70467;SDS011;57934;51.532;7.684;2022-09-29T15:40:54;6.32;;;2.15;;
70467;SDS011;57934;51.532;7.684;2022-09-29T15:43:22;5.35;;;1.90;;
70467;SDS011;57934;51.532;7.684;2022-09-29T15:45:54;4.97;;;2.10;;
70467;SDS011;57934;51.532;7.684;2022-09-29T15:48:25;3.92;;;1.90;;
70467;SDS011;57934;51.532;7.684;2022-09-29T15:50:52;4.90;;;1.88;;
70467;SDS011;57934;51.532;7.684;2022-09-29T15:53:23;5.50;;;2.53;;
70467;SDS011;57934;51.532;7.684;2022-09-29T15:55:52;5.80;;;2.00;;
70467;SDS011;57934;51.532;7.684;2022-09-29T16:03:30;3.78;;;2.22;;
70467;SDS011;57934;51.532;7.684;2022-09-29T16:06:07;4.32;;;2.17;;
70467;SDS011;57934;51.532;7.684;2022-09-29T16:08:43;5.15;;;2.20;;
70467;SDS011;57934;51.532;7.684;2022-09-29T16:11:24;2.72;;;2.05;;
70467;SDS011;57934;51.532;7.684;2022-09-29T16:13:59;4.03;;;1.85;;
70467;SDS011;57934;51.532;7.684;2022-09-29T16:16:33;4.75;;;2.40;;
70467;SDS011;57934;51.532;7.684;2022-09-29T16:19:03;4.28;;;2.17;;
70467;SDS011;57934;51.532;7.684;2022-09-29T16:21:35;3.10;;;1.65;;
70467;SDS011;57934;51.532;7.684;2022-09-29T16:24:09;2.42;;;1.90;;
70467;SDS011;57934;51.532;7.684;2022-09-29T16:26:42;4.32;;;1.52;;
70467;SDS011;57934;51.532;7.684;2022-09-29T16:31:35;3.67;;;1.83;;
70467;SDS011;57934;51.532;7.684;2022-09-29T16:34:08;3.38;;;1.80;;
70467;SDS011;57934;51.532;7.684;2022-09-29T16:36:46;5.60;;;1.95;;
70467;SDS011;57934;51.532;7.684;2022-09-29T16:39:17;2.88;;;1.85;;
70467;SDS011;57934;51.532;7.684;2022-09-29T16:41:49;3.30;;;1.85;;
70467;SDS011;57934;51.532;7.684;2022-09-29T16:44:27;3.83;;;1.63;;
70467;SDS011;57934;51.532;7.684;2022-09-29T16:47:02;4.90;;;1.70;;
70467;SDS011;57934;51.532;7.684;2022-09-29T16:49:43;9.48;;;2.53;;
70467;SDS011;57934;51.532;7.684;2022-09-29T16:55:14;3.00;;;1.75;;
70467;SDS011;57934;51.532;7.684;2022-09-29T16:57:50;5.65;;;2.97;;
70467;SDS011;57934;51.532;7.684;2022-09-29T17:00:26;4.65;;;2.33;;
70467;SDS011;57934;51.532;7.684;2022-09-29T17:02:53;6.82;;;2.85;;
70467;SDS011;57934;51.532;7.684;2022-09-29T17:05:20;4.43;;;2.65;;
70467;SDS011;57934;51.532;7.684;2022-09-29T17:07:47;5.07;;;3.13;;
70467;SDS011;57934;51.532;7.684;2022-09-29T17:10:15;5.47;;;3.58;;
70467;SDS011;57934;51.532;7.684;2022-09-29T17:12:44;8.85;;;4.40;;
70467;SDS011;57934;51.532;7.684;2022-09-29T17:15:12;7.07;;;3.83;;
70467;SDS011;57934;51.532;7.684;2022-09-29T17:17:38;5.07;;;3.80;;
70467;SDS011;57934;51.532;7.684;2022-09-29T17:20:14;6.43;;;4.15;;
70467;SDS011;57934;51.532;7.684;2022-09-29T17:22:42;7.13;;;3.70;;
70467;SDS011;57934;51.532;7.684;2022-09-29T17:25:13;4.07;;;3.40;;
70467;SDS011;57934;51.532;7.684;2022-09-29T17:27:40;8.18;;;4.07;;
70467;SDS011;57934;51.532;7.684;2022-09-29T17:30:26;6.97;;;4.13;;
70467;SDS011;57934;51.532;7.684;2022-09-29T17:32:53;8.52;;;4.18;;
70467;SDS011;57934;51.532;7.684;2022-09-29T17:35:23;8.20;;;4.22;;
70467;SDS011;57934;51.532;7.684;2022-09-29T17:37:53;6.63;;;4.60;;
70467;SDS011;57934;51.532;7.684;2022-09-29T17:40:24;9.45;;;4.63;;
70467;SDS011;57934;51.532;7.684;2022-09-29T17:42:55;7.53;;;4.45;;
70467;SDS011;57934;51.532;7.684;2022-09-29T17:45:23;6.63;;;4.40;;
70467;SDS011;57934;51.532;7.684;2022-09-29T17:47:50;4.22;;;3.83;;
70467;SDS011;57934;51.532;7.684;2022-09-29T17:50:21;5.82;;;4.20;;
70467;SDS011;57934;51.532;7.684;2022-09-29T17:52:50;6.93;;;4.33;;
70467;SDS011;57934;51.532;7.684;2022-09-29T17:55:18;5.65;;;4.68;;
70467;SDS011;57934;51.532;7.684;2022-09-29T17:57:45;12.40;;;5.78;;